createdAt,value
2018-01-20T00:00:04.336Z,95616.32
2018-01-20T00:02:32.077Z,95618.25
2018-01-20T00:04:59.685Z,95618.17
2018-01-20T00:07:27.259Z,95611.41
2018-01-20T00:10:06.677Z,95608.24
2018-01-20T00:12:34.311Z,95602.66
2018-01-20T00:15:01.913Z,95599.64
2018-01-20T00:17:29.513Z,95593.48
2018-01-20T00:19:57.129Z,95590.22
2018-01-20T00:22:24.717Z,95593.59
2018-01-20T00:24:57.779Z,95591.63
2018-01-20T00:27:25.373Z,95588.37
2018-01-20T00:29:52.956Z,95590.97
2018-01-20T00:32:20.536Z,95585.39
2018-01-20T00:34:48.100Z,95590.71
2018-01-20T00:37:15.694Z,95592.90
2018-01-20T00:39:43.301Z,95595.05
2018-01-20T00:42:10.979Z,95599.69
2018-01-20T00:44:38.525Z,95595.45
2018-01-20T00:47:06.217Z,95598.73
2018-01-20T00:49:33.787Z,95588.89
2018-01-20T00:52:01.363Z,95592.65
2018-01-20T00:54:28.925Z,95595.44
2018-01-20T00:56:56.497Z,95587.08
2018-01-20T00:59:24.114Z,95590.56
2018-01-20T01:01:51.676Z,95587.95
2018-01-20T01:04:19.263Z,95589.34
2018-01-20T01:06:46.896Z,95584.39
2018-01-20T01:09:14.441Z,95583.84
2018-01-20T01:11:42.014Z,95585.50
2018-01-20T01:14:09.588Z,95578.99
2018-01-20T01:16:37.143Z,95571.57
2018-01-20T01:19:05.002Z,95574.30
2018-01-20T01:21:32.592Z,95575.33
2018-01-20T01:24:00.156Z,95571.10
2018-01-20T01:26:27.719Z,95572.41
2018-01-20T01:28:55.289Z,95565.47
2018-01-20T01:31:23.326Z,95564.39
2018-01-20T01:33:51.072Z,95561.55
2018-01-20T01:36:18.809Z,95560.71
2018-01-20T01:38:47.366Z,95559.41
2018-01-20T01:41:21.604Z,95559.25
2018-01-20T01:43:49.217Z,95562.45
2018-01-20T01:46:16.994Z,95561.92
2018-01-20T01:48:44.617Z,95567.84
2018-01-20T01:51:12.175Z,95570.30
2018-01-20T01:53:39.727Z,95576.39
2018-01-20T01:56:07.362Z,95573.57
2018-01-20T01:58:35.335Z,95574.84
2018-01-20T02:01:03.319Z,95577.27
2018-01-20T02:03:30.877Z,95572.86
2018-01-20T02:05:58.455Z,95567.51
2018-01-20T02:08:26.018Z,95561.95
2018-01-20T02:10:53.595Z,95562.91
2018-01-20T02:13:21.165Z,95560.23
2018-01-20T02:15:48.713Z,95552.30
2018-01-20T02:18:16.304Z,95553.95
2018-01-20T02:20:43.966Z,95556.97
2018-01-20T02:23:12.218Z,95554.84
2018-01-20T02:25:39.795Z,95547.33
2018-01-20T02:28:07.617Z,95544.86
2018-01-20T02:30:35.183Z,95539.39
2018-01-20T02:33:02.775Z,95537.91
2018-01-20T02:35:30.330Z,95536.79
2018-01-20T02:37:58.838Z,95534.04
2018-01-20T02:40:26.456Z,95541.41
2018-01-20T02:42:56.194Z,95538.06
2018-01-20T02:45:30.548Z,95524.91
2018-01-20T02:47:58.140Z,95527.22
2018-01-20T02:50:25.726Z,95523.89
2018-01-20T02:52:53.312Z,95524.94
2018-01-20T02:55:21.105Z,95526.23
2018-01-20T02:57:48.724Z,95525.87
2018-01-20T03:00:16.257Z,95530.56
2018-01-20T03:02:43.853Z,95526.94
2018-01-20T03:05:11.707Z,95521.21
2018-01-20T03:07:41.241Z,95513.00
2018-01-20T03:10:09.193Z,95508.12
2018-01-20T03:12:39.956Z,95515.05
2018-01-20T03:15:11.118Z,95519.94
2018-01-20T03:17:44.502Z,95516.33
2018-01-20T03:20:17.486Z,95522.47
2018-01-20T03:22:45.038Z,95515.41
2018-01-20T03:25:12.645Z,95524.39
2018-01-20T03:27:40.338Z,95518.14
2018-01-20T03:30:07.978Z,95527.99
2018-01-20T03:32:36.426Z,95519.33
2018-01-20T03:35:04.086Z,95512.98
2018-01-20T03:37:31.867Z,95516.14
2018-01-20T03:40:01.359Z,95517.87
2018-01-20T03:42:28.979Z,95520.36
2018-01-20T03:44:56.659Z,95514.03
2018-01-20T03:47:25.117Z,95518.62
2018-01-20T03:49:52.771Z,95518.33
2018-01-20T03:52:20.392Z,95523.12
2018-01-20T03:54:47.940Z,95523.48
2018-01-20T03:57:16.278Z,95534.19
2018-01-20T03:59:43.973Z,95529.91
2018-01-20T04:02:14.188Z,95538.41
2018-01-20T04:04:45.472Z,95534.33
2018-01-20T04:07:14.337Z,95542.81
2018-01-20T04:09:41.946Z,95535.31
2018-01-20T04:12:09.730Z,95525.81
2018-01-20T04:17:09.664Z,95545.41
2018-01-20T04:19:37.243Z,95548.92
2018-01-20T04:22:04.870Z,95538.47
2018-01-20T04:24:32.446Z,95551.96
2018-01-20T04:27:00.014Z,95554.70
2018-01-20T04:29:27.898Z,95553.19
2018-01-20T04:31:55.654Z,95549.02
2018-01-20T04:34:23.275Z,95554.75
2018-01-20T04:36:50.858Z,95560.97
2018-01-20T04:39:18.501Z,95566.66
2018-01-20T04:41:46.070Z,95568.61
2018-01-20T04:44:13.648Z,95558.88
2018-01-20T04:46:41.212Z,95565.31
2018-01-20T04:49:09.109Z,95572.50
2018-01-20T04:51:36.893Z,95578.55
2018-01-20T04:54:04.711Z,95581.09
2018-01-20T04:56:32.324Z,95589.84
2018-01-20T04:58:59.876Z,95593.94
2018-01-20T05:01:27.417Z,95592.11
2018-01-20T05:03:55.026Z,95595.48
2018-01-20T05:06:23.641Z,95590.52
2018-01-20T05:08:51.191Z,95587.48
2018-01-20T05:11:18.796Z,95586.97
2018-01-20T05:13:46.384Z,95590.06
2018-01-20T05:16:14.071Z,95592.02
2018-01-20T05:18:41.674Z,95585.20
2018-01-20T05:21:09.500Z,95583.81
2018-01-20T05:23:37.073Z,95594.28
2018-01-20T05:26:04.694Z,95591.27
2018-01-20T05:28:32.280Z,95589.58
2018-01-20T05:30:59.850Z,95583.27
2018-01-20T05:33:27.491Z,95584.61
2018-01-20T05:35:55.072Z,95597.47
2018-01-20T05:38:22.972Z,95605.49
2018-01-20T05:40:50.601Z,95597.69
2018-01-20T05:43:18.153Z,95601.36
2018-01-20T05:45:45.719Z,95603.10
2018-01-20T05:48:13.322Z,95605.91
2018-01-20T05:50:40.895Z,95611.12
2018-01-20T05:53:08.867Z,95616.50
2018-01-20T05:55:36.477Z,95614.95
2018-01-20T05:58:04.053Z,95615.09
2018-01-20T06:00:31.612Z,95618.58
2018-01-20T06:02:59.162Z,95619.80
2018-01-20T06:05:26.776Z,95621.84
2018-01-20T06:07:54.375Z,95626.31
2018-01-20T06:10:21.934Z,95633.87
2018-01-20T06:12:49.731Z,95636.72
2018-01-20T06:15:17.324Z,95638.61
2018-01-20T06:17:46.387Z,95638.21
2018-01-20T06:20:13.994Z,95638.94
2018-01-20T06:22:41.561Z,95635.44
2018-01-20T06:25:09.420Z,95639.68
2018-01-20T06:27:37.573Z,95639.27
2018-01-20T06:30:05.156Z,95644.72
2018-01-20T06:32:32.749Z,95644.06
2018-01-20T06:35:00.405Z,95648.19
2018-01-20T06:37:28.340Z,95647.53
2018-01-20T06:39:55.887Z,95645.31
2018-01-20T06:42:24.757Z,95652.03
2018-01-20T06:44:52.347Z,95643.56
2018-01-20T06:47:20.245Z,95637.34
2018-01-20T06:49:47.804Z,95649.00
2018-01-20T06:52:15.390Z,95646.22
2018-01-20T06:54:43.361Z,95651.13
2018-01-20T06:57:11.270Z,95652.12
2018-01-20T06:59:38.860Z,95656.09
2018-01-20T07:02:07.347Z,95650.93
2018-01-20T07:04:34.916Z,95647.35
2018-01-20T07:07:02.523Z,95637.44
2018-01-20T07:09:30.120Z,95624.48
2018-01-20T07:11:57.743Z,95627.58
2018-01-20T07:14:25.314Z,95624.66
2018-01-20T07:16:53.375Z,95622.03
2018-01-20T07:19:20.960Z,95621.54
2018-01-20T07:21:50.851Z,95629.67
2018-01-20T07:24:18.544Z,95625.99
2018-01-20T07:29:38.965Z,95635.49
2018-01-20T07:32:06.905Z,95628.56
2018-01-20T07:34:34.466Z,95634.71
2018-01-20T07:37:02.020Z,95636.22
2018-01-20T07:39:29.867Z,95634.47
2018-01-20T07:41:57.436Z,95620.89
2018-01-20T07:44:25.014Z,95617.63
2018-01-20T07:46:52.592Z,95615.51
2018-01-20T07:49:20.157Z,95605.08
2018-01-20T07:51:47.694Z,95605.49
2018-01-20T07:54:15.573Z,95597.61
2018-01-20T07:56:43.168Z,95597.92
2018-01-20T07:59:10.825Z,95604.23
2018-01-20T08:01:38.616Z,95599.39
2018-01-20T08:04:06.184Z,95607.27
2018-01-20T08:06:33.739Z,95612.11
2018-01-20T08:09:01.295Z,95616.50
2018-01-20T08:11:29.172Z,95607.38
2018-01-20T08:13:57.020Z,95610.44
2018-01-20T08:16:24.791Z,95604.88
2018-01-20T08:18:52.353Z,95609.63
2018-01-20T08:21:19.915Z,95608.75
2018-01-20T08:23:47.497Z,95610.70
2018-01-20T08:26:15.093Z,95598.81
2018-01-20T08:28:42.664Z,95599.89
2018-01-20T08:31:10.709Z,95597.88
2018-01-20T08:33:53.982Z,95596.68
2018-01-20T08:36:21.576Z,95594.45
2018-01-20T08:38:49.165Z,95587.64
2018-01-20T08:41:16.835Z,95594.07
2018-01-20T08:43:44.529Z,95591.61
2018-01-20T08:46:12.127Z,95591.23
2018-01-20T08:48:39.696Z,95590.89
2018-01-20T08:51:07.409Z,95598.50
2018-01-20T08:53:35.146Z,95574.92
2018-01-20T08:56:02.713Z,95588.72
2018-01-20T08:58:30.275Z,95583.92
2018-01-20T09:00:57.848Z,95570.50
2018-01-20T09:03:26.151Z,95559.16
2018-01-20T09:05:53.753Z,95548.84
2018-01-20T09:08:22.224Z,95554.72
2018-01-20T09:10:49.865Z,95552.02
2018-01-20T09:13:17.450Z,95553.48
2018-01-20T09:15:45.011Z,95547.98
2018-01-20T09:18:12.568Z,95548.39
2018-01-20T09:20:40.126Z,95556.45
2018-01-20T09:23:08.616Z,95558.77
2018-01-20T09:25:36.261Z,95548.33
2018-01-20T09:28:03.910Z,95546.59
2018-01-20T09:30:33.271Z,95550.21
2018-01-20T09:33:00.821Z,95550.45
2018-01-20T09:35:28.413Z,95552.95
2018-01-20T09:37:56.024Z,95553.39
2018-01-20T09:40:23.636Z,95545.61
2018-01-20T09:42:51.253Z,95545.31
2018-01-20T09:45:19.202Z,95551.69
2018-01-20T09:47:46.757Z,95548.02
2018-01-20T09:50:14.342Z,95541.05
2018-01-20T09:52:41.944Z,95554.25
2018-01-20T09:55:09.959Z,95546.73
2018-01-20T09:57:37.581Z,95538.55
2018-01-20T10:00:05.343Z,95551.13
2018-01-20T10:02:32.942Z,95542.77
2018-01-20T10:05:00.545Z,95534.77
2018-01-20T10:07:28.140Z,95540.77
2018-01-20T10:09:55.692Z,95539.45
2018-01-20T10:12:23.320Z,95543.47
2018-01-20T10:14:50.877Z,95547.19
2018-01-20T10:17:18.706Z,95533.96
2018-01-20T10:19:46.253Z,95523.61
2018-01-20T10:22:14.050Z,95517.83
2018-01-20T10:24:41.685Z,95512.69
2018-01-20T10:27:09.666Z,95517.16
2018-01-20T10:29:37.280Z,95519.09
2018-01-20T10:32:04.842Z,95514.50
2018-01-20T10:34:32.415Z,95509.16
2018-01-20T10:37:00.050Z,95511.28
2018-01-20T10:39:28.571Z,95493.36
2018-01-20T10:41:56.113Z,95498.22
2018-01-20T10:44:23.913Z,95496.44
2018-01-20T10:46:51.623Z,95492.11
2018-01-20T10:49:19.181Z,95476.34
2018-01-20T10:51:46.756Z,95468.24
2018-01-20T10:54:14.352Z,95472.89
2018-01-20T10:56:41.895Z,95466.36
2018-01-20T10:59:09.458Z,95467.27
2018-01-20T11:01:40.701Z,95457.05
2018-01-20T11:04:08.308Z,95458.56
2018-01-20T11:06:35.872Z,95455.81
2018-01-20T11:09:03.697Z,95442.77
2018-01-20T11:11:31.342Z,95448.70
2018-01-20T11:13:59.008Z,95443.37
2018-01-20T11:16:26.610Z,95447.24
2018-01-20T11:18:54.176Z,95442.23
2018-01-20T11:21:21.776Z,95439.86
2018-01-20T11:23:49.364Z,95437.02
2018-01-20T11:26:17.765Z,95437.75
2018-01-20T11:28:45.384Z,95438.78
2018-01-20T11:31:12.962Z,95431.50
2018-01-20T11:33:41.054Z,95429.97
2018-01-20T11:36:08.693Z,95433.31
2018-01-20T11:38:36.307Z,95419.45
2018-01-20T11:41:03.925Z,95419.66
2018-01-20T11:43:31.751Z,95414.09
2018-01-20T11:45:59.319Z,95404.61
2018-01-20T11:48:26.871Z,95396.80
2018-01-20T11:50:55.562Z,95405.30
2018-01-20T11:53:23.167Z,95398.47
2018-01-20T11:55:51.032Z,95393.72
2018-01-20T11:58:18.612Z,95390.89
2018-01-20T12:00:47.993Z,95383.97
2018-01-20T12:03:15.582Z,95384.17
2018-01-20T12:05:43.197Z,95378.05
2018-01-20T12:08:10.772Z,95376.78
2018-01-20T12:10:38.375Z,95372.88
2018-01-20T12:13:06.304Z,95375.98
2018-01-20T12:15:34.108Z,95383.98
2018-01-20T12:18:02.043Z,95373.34
2018-01-20T12:20:30.691Z,95366.77
2018-01-20T12:22:58.274Z,95377.72
2018-01-20T12:25:26.235Z,95361.57
2018-01-20T12:27:53.842Z,95364.89
2018-01-20T12:30:21.471Z,95364.71
2018-01-20T12:32:49.033Z,95358.14
2018-01-20T12:35:17.126Z,95356.44
2018-01-20T12:37:44.908Z,95360.42
2018-01-20T12:40:12.484Z,95350.23
2018-01-20T12:42:40.111Z,95347.22
2018-01-20T12:45:07.688Z,95352.88
2018-01-20T12:47:35.282Z,95349.15
2018-01-20T12:50:03.089Z,95346.50
2018-01-20T12:52:30.704Z,95334.83
2018-01-20T12:54:58.240Z,95341.84
2018-01-20T12:57:27.734Z,95346.08
2018-01-20T12:59:55.508Z,95340.72
2018-01-20T13:02:23.080Z,95346.63
2018-01-20T13:04:50.616Z,95337.23
2018-01-20T13:07:18.172Z,95340.10
2018-01-20T13:09:46.727Z,95331.05
2018-01-20T13:12:14.310Z,95326.72
2018-01-20T13:14:41.907Z,95320.24
2018-01-20T13:17:10.187Z,95323.21
2018-01-20T13:19:37.715Z,95316.58
2018-01-20T13:22:05.266Z,95320.59
2018-01-20T13:24:32.788Z,95317.84
2018-01-20T13:27:00.317Z,95320.22
2018-01-20T13:29:27.857Z,95311.06
2018-01-20T13:31:55.419Z,95321.55
2018-01-20T13:34:24.133Z,95316.45
2018-01-20T13:36:51.663Z,95311.30
2018-01-20T13:39:19.482Z,95305.96
2018-01-20T13:41:47.085Z,95302.58
2018-01-20T13:44:14.681Z,95301.30
2018-01-20T13:46:42.249Z,95289.99
2018-01-20T13:49:10.815Z,95298.21
2018-01-20T13:51:38.570Z,95296.44
2018-01-20T13:54:06.179Z,95265.48
2018-01-20T13:56:33.763Z,95278.20
2018-01-20T13:59:01.359Z,95267.55
2018-01-20T14:01:28.890Z,95276.93
2018-01-20T14:03:56.452Z,95275.13
2018-01-20T14:06:25.042Z,95276.88
2018-01-20T14:08:52.603Z,95270.14
2018-01-20T14:11:20.180Z,95274.50
2018-01-20T14:13:47.790Z,95267.07
2018-01-20T14:16:15.354Z,95270.45
2018-01-20T14:18:42.906Z,95274.01
2018-01-20T14:21:11.185Z,95278.84
2018-01-20T14:23:38.768Z,95270.94
2018-01-20T14:26:06.398Z,95266.55
2018-01-20T14:28:33.982Z,95270.97
2018-01-20T14:31:01.564Z,95262.35
2018-01-20T14:33:29.390Z,95252.56
2018-01-20T14:35:57.063Z,95255.38
2018-01-20T14:38:24.988Z,95258.22
2018-01-20T14:40:52.589Z,95250.44
2018-01-20T14:43:20.680Z,95245.45
2018-01-20T14:45:48.239Z,95240.21
2018-01-20T14:48:16.085Z,95232.57
2018-01-20T14:50:43.730Z,95236.14
2018-01-20T14:53:12.896Z,95227.48
2018-01-20T14:55:40.477Z,95225.18
2018-01-20T14:58:08.119Z,95230.70
2018-01-20T15:00:35.721Z,95228.81
2018-01-20T15:03:03.335Z,95229.76
2018-01-20T15:05:32.452Z,95222.05
2018-01-20T15:08:01.474Z,95225.77
2018-01-20T15:10:29.164Z,95221.70
2018-01-20T15:12:56.734Z,95221.61
2018-01-20T15:15:25.225Z,95220.51
2018-01-20T15:17:54.991Z,95214.66
2018-01-20T15:20:22.552Z,95208.76
2018-01-20T15:22:50.149Z,95215.39
2018-01-20T15:25:19.654Z,95207.81
2018-01-20T15:27:47.999Z,95204.70
2018-01-20T15:30:15.737Z,95200.19
2018-01-20T15:32:51.939Z,95197.73
2018-01-20T15:35:22.793Z,95187.22
2018-01-20T15:37:51.235Z,95183.36
2018-01-20T15:40:18.917Z,95177.95
2018-01-20T15:42:47.975Z,95166.48
2018-01-20T15:45:15.977Z,95168.17
2018-01-20T15:47:45.032Z,95164.06
2018-01-20T15:50:12.671Z,95158.86
2018-01-20T15:52:40.260Z,95166.87
2018-01-20T15:55:08.121Z,95163.36
2018-01-20T15:57:35.885Z,95163.97
2018-01-20T16:00:03.705Z,95159.09
2018-01-20T16:02:31.347Z,95154.64
2018-01-20T16:04:58.992Z,95152.48
2018-01-20T16:07:27.985Z,95157.00
2018-01-20T16:09:55.514Z,95144.95
2018-01-20T16:12:24.515Z,95147.33
2018-01-20T16:14:52.267Z,95137.42
2018-01-20T16:17:19.851Z,95136.95
2018-01-20T16:19:47.430Z,95136.54
2018-01-20T16:22:15.961Z,95136.42
2018-01-20T16:24:43.538Z,95132.08
2018-01-20T16:27:11.958Z,95135.24
2018-01-20T16:29:39.532Z,95132.78
2018-01-20T16:32:07.090Z,95142.45
2018-01-20T16:34:34.682Z,95131.58
2018-01-20T16:37:02.237Z,95124.64
2018-01-20T16:39:30.478Z,95129.94
2018-01-20T16:41:58.046Z,95131.81
2018-01-20T16:44:25.642Z,95127.91
2018-01-20T16:46:53.259Z,95124.22
2018-01-20T16:49:21.503Z,95110.58
2018-01-20T16:51:49.184Z,95114.46
2018-01-20T16:54:16.717Z,95105.06
2018-01-20T16:56:44.267Z,95102.20
2018-01-20T16:59:12.068Z,95101.77
2018-01-20T17:01:39.640Z,95093.27
2018-01-20T17:04:07.318Z,95084.73
2018-01-20T17:06:34.881Z,95083.22
2018-01-20T17:09:02.712Z,95077.14
2018-01-20T17:11:30.515Z,95072.67
2018-01-20T17:13:58.092Z,95066.05
2018-01-20T17:16:25.685Z,95060.50
2018-01-20T17:18:53.365Z,95060.80
2018-01-20T17:21:20.932Z,95056.30
2018-01-20T17:23:48.484Z,95046.00
2018-01-20T17:26:16.141Z,95039.91
2018-01-20T17:28:43.780Z,95030.73
2018-01-20T17:31:12.089Z,95026.48
2018-01-20T17:36:13.740Z,95015.02
2018-01-20T17:38:41.323Z,95008.92
2018-01-20T17:41:09.269Z,95004.76
2018-01-20T17:43:36.850Z,94993.92
2018-01-20T17:46:04.499Z,94989.45
2018-01-20T17:48:32.071Z,94984.09
2018-01-20T17:50:59.697Z,94976.31
2018-01-20T17:53:27.994Z,94967.06
2018-01-20T17:55:55.609Z,94968.44
2018-01-20T17:58:23.216Z,94966.86
2018-01-20T18:00:50.791Z,94959.80
2018-01-20T18:03:18.344Z,94955.63
2018-01-20T18:05:46.834Z,94948.37
2018-01-20T18:08:14.403Z,94938.25
2018-01-20T18:10:41.989Z,94929.27
2018-01-20T18:13:10.640Z,94921.02
2018-01-20T18:15:38.369Z,94910.72
2018-01-20T18:18:06.039Z,94897.59
2018-01-20T18:20:35.127Z,94896.53
2018-01-20T18:23:02.827Z,94896.45
2018-01-20T18:25:30.621Z,94890.64
2018-01-20T18:27:58.188Z,94886.84
2018-01-20T18:30:25.804Z,94879.95
2018-01-20T18:32:53.370Z,94873.23
2018-01-20T18:35:20.947Z,94865.89
2018-01-20T18:37:48.578Z,94856.84
2018-01-20T18:40:16.229Z,94853.52
2018-01-20T18:42:43.791Z,94843.72
2018-01-20T18:45:12.060Z,94835.09
2018-01-20T18:47:39.619Z,94832.75
2018-01-20T18:50:07.215Z,94823.01
2018-01-20T18:52:34.798Z,94817.89
2018-01-20T18:55:02.345Z,94812.95
2018-01-20T18:57:29.995Z,94800.88
2018-01-20T18:59:57.580Z,94795.48
2018-01-20T19:02:25.419Z,94796.83
2018-01-20T19:04:53.739Z,94796.51
2018-01-20T19:07:24.164Z,94779.00
2018-01-20T19:09:51.747Z,94772.47
2018-01-20T19:12:19.541Z,94772.09
2018-01-20T19:14:47.139Z,94767.97
2018-01-20T19:17:17.279Z,94766.08
2018-01-20T19:19:47.549Z,94746.16
2018-01-20T19:22:15.177Z,94740.58
2018-01-20T19:24:43.980Z,94740.05
2018-01-20T19:27:12.931Z,94743.91
2018-01-20T19:29:40.913Z,94740.84
2018-01-20T19:32:10.960Z,94739.67
2018-01-20T19:34:39.210Z,94741.86
2018-01-20T19:37:07.667Z,94741.42
2018-01-20T19:39:35.609Z,94731.48
2018-01-20T19:42:03.251Z,94731.98
2018-01-20T19:44:30.834Z,94727.10
2018-01-20T19:46:59.398Z,94720.41
2018-01-20T19:49:27.008Z,94713.19
2018-01-20T19:51:54.590Z,94706.23
2018-01-20T19:54:25.987Z,94692.95
2018-01-20T19:56:59.215Z,94687.51
2018-01-20T19:59:26.869Z,94694.11
2018-01-20T20:01:54.488Z,94696.19
2018-01-20T20:04:22.088Z,94685.79
2018-01-20T20:06:49.639Z,94680.83
2018-01-20T20:09:17.243Z,94675.09
2018-01-20T20:11:44.839Z,94673.31
2018-01-20T20:14:12.458Z,94678.48
2018-01-20T20:16:40.024Z,94671.24
2018-01-20T20:19:08.328Z,94667.80
2018-01-20T20:21:35.951Z,94653.82
2018-01-20T20:24:03.540Z,94645.23
2018-01-20T20:26:31.154Z,94639.70
2018-01-20T20:28:58.728Z,94624.00
2018-01-20T20:31:26.818Z,94612.41
2018-01-20T20:33:54.426Z,94599.64
2018-01-20T20:36:22.048Z,94587.28
2018-01-20T20:38:49.874Z,94573.23
2018-01-20T20:41:17.606Z,94570.66
2018-01-20T20:43:45.342Z,94565.91
2018-01-20T20:46:12.951Z,94566.89
2018-01-20T20:48:40.528Z,94567.80
2018-01-20T20:51:08.163Z,94564.59
2018-01-20T20:53:35.731Z,94569.72
2018-01-20T20:56:03.335Z,94559.16
2018-01-20T20:58:30.961Z,94552.66
2018-01-20T21:00:58.530Z,94551.77
2018-01-20T21:03:27.797Z,94552.31
2018-01-20T21:05:55.403Z,94539.67
2018-01-20T21:08:23.393Z,94534.13
2018-01-20T21:10:51.114Z,94528.23
2018-01-20T21:13:18.719Z,94518.39
2018-01-20T21:15:46.276Z,94514.16
2018-01-20T21:18:13.860Z,94510.38
2018-01-20T21:20:41.460Z,94505.61
2018-01-20T21:23:09.328Z,94497.41
2018-01-20T21:25:37.419Z,94493.30
2018-01-20T21:28:05.026Z,94497.59
2018-01-20T21:30:34.620Z,94494.84
2018-01-20T21:33:02.213Z,94485.67
2018-01-20T21:35:29.838Z,94483.98
2018-01-20T21:37:57.452Z,94477.68
2018-01-20T21:40:25.048Z,94479.16
2018-01-20T21:42:52.602Z,94471.84
2018-01-20T21:45:20.337Z,94465.73
2018-01-20T21:47:48.061Z,94469.31
2018-01-20T21:50:15.721Z,94468.64
2018-01-20T21:52:43.678Z,94466.22
2018-01-20T21:55:11.991Z,94467.16
2018-01-20T21:57:39.587Z,94467.27
2018-01-20T22:00:08.773Z,94447.48
2018-01-20T22:02:38.793Z,94454.26
2018-01-20T22:05:06.969Z,94451.41
2018-01-20T22:07:34.563Z,94447.88
2018-01-20T22:10:02.187Z,94446.20
2018-01-20T22:12:29.774Z,94443.83
2018-01-20T22:14:57.360Z,94436.23
2018-01-20T22:17:24.964Z,94437.45
2018-01-20T22:19:52.560Z,94436.09
2018-01-20T22:22:20.873Z,94428.90
2018-01-20T22:24:48.457Z,94422.70
2018-01-20T22:27:16.167Z,94418.20
2018-01-20T22:29:43.823Z,94415.34
2018-01-20T22:32:11.700Z,94406.74
2018-01-20T22:34:39.495Z,94410.01
2018-01-20T22:37:07.934Z,94411.06
2018-01-20T22:39:35.545Z,94402.41
2018-01-20T22:42:03.143Z,94410.67
2018-01-20T22:44:30.811Z,94407.74
2018-01-20T22:46:58.395Z,94410.32
2018-01-20T22:49:26.186Z,94419.33
2018-01-20T22:51:53.822Z,94411.32
2018-01-20T22:54:21.398Z,94413.73
2018-01-20T22:56:49.183Z,94411.66
2018-01-20T22:59:16.862Z,94407.89
2018-01-20T23:01:45.805Z,94407.63
2018-01-20T23:04:13.457Z,94407.03
2018-01-20T23:06:41.087Z,94406.08
2018-01-20T23:09:08.811Z,94403.36
2018-01-20T23:11:36.709Z,94403.02
2018-01-20T23:14:04.302Z,94396.09
2018-01-20T23:16:31.898Z,94395.25
2018-01-20T23:19:05.193Z,94388.70
2018-01-20T23:21:36.295Z,94387.72
2018-01-20T23:24:04.104Z,94381.48
2018-01-20T23:26:32.412Z,94376.29
2018-01-20T23:29:01.922Z,94369.28
2018-01-20T23:31:29.502Z,94367.28
2018-01-20T23:33:57.084Z,94369.16
2018-01-20T23:36:24.672Z,94364.41
2018-01-20T23:38:52.304Z,94358.38
2018-01-20T23:41:20.604Z,94357.12
2018-01-20T23:43:48.580Z,94356.20
2018-01-20T23:46:16.190Z,94356.16
2018-01-20T23:48:44.070Z,94356.83
2018-01-20T23:51:12.903Z,94355.04
2018-01-20T23:53:40.534Z,94356.46
2018-01-20T23:56:08.095Z,94349.98
2018-01-20T23:58:35.688Z,94346.69
